sensor_id;sensor_type;location;lat;lon;timestamp;P1;durP1;ratioP1;P2;durP2;ratioP2
69795;SDS011;57073;45.650;9.612;2023-08-24T00:04:59;11.63;;;10.20;;
69795;SDS011;57073;45.650;9.612;2023-08-24T00:10:00;13.77;;;11.40;;
69795;SDS011;57073;45.650;9.612;2023-08-24T00:15:01;14.53;;;11.20;;
69795;SDS011;57073;45.650;9.612;2023-08-24T00:20:03;14.65;;;11.05;;
69795;SDS011;57073;45.650;9.612;2023-08-24T00:25:07;15.43;;;10.70;;
69795;SDS011;57073;45.650;9.612;2023-08-24T00:30:08;12.80;;;11.02;;
69795;SDS011;57073;45.650;9.612;2023-08-24T00:35:09;15.00;;;10.82;;
69795;SDS011;57073;45.650;9.612;2023-08-24T00:40:11;14.10;;;10.70;;
69795;SDS011;57073;45.650;9.612;2023-08-24T00:45:12;15.60;;;11.40;;
69795;SDS011;57073;45.650;9.612;2023-08-24T00:50:12;14.83;;;11.40;;
69795;SDS011;57073;45.650;9.612;2023-08-24T00:55:15;15.43;;;11.63;;
69795;SDS011;57073;45.650;9.612;2023-08-24T01:00:17;15.35;;;11.38;;
69795;SDS011;57073;45.650;9.612;2023-08-24T01:05:17;14.33;;;10.87;;
69795;SDS011;57073;45.650;9.612;2023-08-24T01:10:18;14.10;;;11.33;;
69795;SDS011;57073;45.650;9.612;2023-08-24T01:15:19;13.80;;;11.30;;
69795;SDS011;57073;45.650;9.612;2023-08-24T01:20:35;12.90;;;10.93;;
69795;SDS011;57073;45.650;9.612;2023-08-24T01:25:38;14.50;;;10.80;;
69795;SDS011;57073;45.650;9.612;2023-08-24T01:30:44;14.73;;;11.52;;
69795;SDS011;57073;45.650;9.612;2023-08-24T01:35:45;15.07;;;10.97;;
69795;SDS011;57073;45.650;9.612;2023-08-24T01:40:48;15.63;;;11.10;;
69795;SDS011;57073;45.650;9.612;2023-08-24T01:45:49;14.90;;;10.82;;
69795;SDS011;57073;45.650;9.612;2023-08-24T01:50:52;13.95;;;11.13;;
69795;SDS011;57073;45.650;9.612;2023-08-24T01:55:52;14.33;;;10.53;;
69795;SDS011;57073;45.650;9.612;2023-08-24T02:00:53;15.20;;;11.20;;
69795;SDS011;57073;45.650;9.612;2023-08-24T02:05:53;14.03;;;11.00;;
69795;SDS011;57073;45.650;9.612;2023-08-24T02:10:54;14.07;;;11.13;;
69795;SDS011;57073;45.650;9.612;2023-08-24T02:16:04;15.83;;;10.83;;
69795;SDS011;57073;45.650;9.612;2023-08-24T02:21:08;17.58;;;10.80;;
69795;SDS011;57073;45.650;9.612;2023-08-24T02:26:11;13.82;;;11.07;;
69795;SDS011;57073;45.650;9.612;2023-08-24T02:31:12;15.20;;;10.97;;
69795;SDS011;57073;45.650;9.612;2023-08-24T02:36:12;14.50;;;11.20;;
69795;SDS011;57073;45.650;9.612;2023-08-24T02:41:12;15.00;;;12.03;;
69795;SDS011;57073;45.650;9.612;2023-08-24T02:46:14;14.13;;;11.30;;
69795;SDS011;57073;45.650;9.612;2023-08-24T02:51:14;13.17;;;10.73;;
69795;SDS011;57073;45.650;9.612;2023-08-24T02:56:15;13.20;;;10.40;;
69795;SDS011;57073;45.650;9.612;2023-08-24T03:01:15;14.63;;;10.75;;
69795;SDS011;57073;45.650;9.612;2023-08-24T03:06:16;14.00;;;10.30;;
69795;SDS011;57073;45.650;9.612;2023-08-24T03:11:16;14.80;;;10.67;;
69795;SDS011;57073;45.650;9.612;2023-08-24T03:16:16;13.03;;;10.23;;
69795;SDS011;57073;45.650;9.612;2023-08-24T03:21:17;14.50;;;10.33;;
69795;SDS011;57073;45.650;9.612;2023-08-24T03:26:18;13.27;;;10.60;;
69795;SDS011;57073;45.650;9.612;2023-08-24T03:31:20;14.83;;;10.43;;
69795;SDS011;57073;45.650;9.612;2023-08-24T03:36:20;15.43;;;10.43;;
69795;SDS011;57073;45.650;9.612;2023-08-24T03:41:21;12.47;;;10.37;;
69795;SDS011;57073;45.650;9.612;2023-08-24T03:46:21;11.97;;;9.87;;
69795;SDS011;57073;45.650;9.612;2023-08-24T03:51:21;18.60;;;10.00;;
69795;SDS011;57073;45.650;9.612;2023-08-24T03:56:22;13.10;;;9.60;;
69795;SDS011;57073;45.650;9.612;2023-08-24T04:01:22;14.43;;;9.83;;
69795;SDS011;57073;45.650;9.612;2023-08-24T04:06:23;13.87;;;9.47;;
69795;SDS011;57073;45.650;9.612;2023-08-24T04:11:24;17.07;;;10.00;;
69795;SDS011;57073;45.650;9.612;2023-08-24T04:16:24;13.43;;;9.87;;
69795;SDS011;57073;45.650;9.612;2023-08-24T04:21:24;13.60;;;9.77;;
69795;SDS011;57073;45.650;9.612;2023-08-24T04:26:25;12.87;;;9.67;;
69795;SDS011;57073;45.650;9.612;2023-08-24T04:31:25;14.17;;;10.47;;
69795;SDS011;57073;45.650;9.612;2023-08-24T04:36:25;14.00;;;9.83;;
69795;SDS011;57073;45.650;9.612;2023-08-24T04:41:26;12.93;;;9.63;;
69795;SDS011;57073;45.650;9.612;2023-08-24T04:46:27;13.00;;;9.77;;
69795;SDS011;57073;45.650;9.612;2023-08-24T04:51:27;14.63;;;9.60;;
69795;SDS011;57073;45.650;9.612;2023-08-24T04:56:29;12.13;;;9.43;;
69795;SDS011;57073;45.650;9.612;2023-08-24T05:01:29;12.70;;;8.90;;
69795;SDS011;57073;45.650;9.612;2023-08-24T05:06:31;13.18;;;9.02;;
69795;SDS011;57073;45.650;9.612;2023-08-24T05:11:32;14.37;;;9.23;;
69795;SDS011;57073;45.650;9.612;2023-08-24T05:16:32;12.33;;;9.27;;
69795;SDS011;57073;45.650;9.612;2023-08-24T05:21:33;16.27;;;9.67;;
69795;SDS011;57073;45.650;9.612;2023-08-24T05:26:33;14.97;;;9.57;;
69795;SDS011;57073;45.650;9.612;2023-08-24T05:31:33;15.73;;;9.20;;
69795;SDS011;57073;45.650;9.612;2023-08-24T05:36:34;11.93;;;8.93;;
69795;SDS011;57073;45.650;9.612;2023-08-24T05:41:34;19.80;;;9.60;;
69795;SDS011;57073;45.650;9.612;2023-08-24T05:46:36;16.55;;;9.07;;
69795;SDS011;57073;45.650;9.612;2023-08-24T05:51:37;18.27;;;9.00;;
69795;SDS011;57073;45.650;9.612;2023-08-24T05:56:37;12.60;;;9.07;;
69795;SDS011;57073;45.650;9.612;2023-08-24T06:01:38;14.93;;;9.10;;
69795;SDS011;57073;45.650;9.612;2023-08-24T06:06:38;14.60;;;9.45;;
69795;SDS011;57073;45.650;9.612;2023-08-24T06:11:39;13.47;;;9.53;;
69795;SDS011;57073;45.650;9.612;2023-08-24T06:16:40;15.30;;;8.90;;
69795;SDS011;57073;45.650;9.612;2023-08-24T06:21:41;15.27;;;9.70;;
69795;SDS011;57073;45.650;9.612;2023-08-24T06:26:41;15.57;;;9.00;;
69795;SDS011;57073;45.650;9.612;2023-08-24T06:31:41;14.13;;;8.87;;
69795;SDS011;57073;45.650;9.612;2023-08-24T06:36:42;14.90;;;9.50;;
69795;SDS011;57073;45.650;9.612;2023-08-24T06:41:42;11.87;;;9.30;;
69795;SDS011;57073;45.650;9.612;2023-08-24T06:46:43;16.53;;;9.03;;
69795;SDS011;57073;45.650;9.612;2023-08-24T06:51:43;10.90;;;9.03;;
69795;SDS011;57073;45.650;9.612;2023-08-24T06:56:43;14.37;;;9.20;;
69795;SDS011;57073;45.650;9.612;2023-08-24T07:01:44;13.10;;;9.00;;
69795;SDS011;57073;45.650;9.612;2023-08-24T07:06:44;14.20;;;9.47;;
69795;SDS011;57073;45.650;9.612;2023-08-24T07:11:44;15.27;;;9.13;;
69795;SDS011;57073;45.650;9.612;2023-08-24T07:16:45;13.57;;;9.00;;
69795;SDS011;57073;45.650;9.612;2023-08-24T07:21:45;13.23;;;9.00;;
69795;SDS011;57073;45.650;9.612;2023-08-24T07:26:46;11.13;;;8.50;;
69795;SDS011;57073;45.650;9.612;2023-08-24T07:31:47;12.68;;;8.70;;
69795;SDS011;57073;45.650;9.612;2023-08-24T07:36:48;13.33;;;8.10;;
69795;SDS011;57073;45.650;9.612;2023-08-24T07:41:48;10.63;;;8.25;;
69795;SDS011;57073;45.650;9.612;2023-08-24T07:46:49;13.67;;;8.10;;
69795;SDS011;57073;45.650;9.612;2023-08-24T07:51:49;17.07;;;8.00;;
69795;SDS011;57073;45.650;9.612;2023-08-24T07:56:49;12.20;;;7.77;;
69795;SDS011;57073;45.650;9.612;2023-08-24T08:01:50;15.37;;;8.60;;
69795;SDS011;57073;45.650;9.612;2023-08-24T08:06:50;12.00;;;7.60;;
69795;SDS011;57073;45.650;9.612;2023-08-24T08:11:51;11.93;;;7.90;;
69795;SDS011;57073;45.650;9.612;2023-08-24T08:16:51;15.38;;;8.20;;
69795;SDS011;57073;45.650;9.612;2023-08-24T08:21:52;11.45;;;7.90;;
69795;SDS011;57073;45.650;9.612;2023-08-24T08:26:52;13.90;;;8.40;;
69795;SDS011;57073;45.650;9.612;2023-08-24T08:31:52;9.77;;;7.37;;
69795;SDS011;57073;45.650;9.612;2023-08-24T08:36:53;12.85;;;7.65;;
69795;SDS011;57073;45.650;9.612;2023-08-24T08:41:53;10.80;;;8.60;;
69795;SDS011;57073;45.650;9.612;2023-08-24T08:46:54;10.83;;;7.50;;
69795;SDS011;57073;45.650;9.612;2023-08-24T08:51:55;15.32;;;7.85;;
69795;SDS011;57073;45.650;9.612;2023-08-24T08:56:56;12.10;;;7.20;;
69795;SDS011;57073;45.650;9.612;2023-08-24T09:01:57;11.57;;;7.47;;
69795;SDS011;57073;45.650;9.612;2023-08-24T09:07:00;9.47;;;7.40;;
69795;SDS011;57073;45.650;9.612;2023-08-24T09:12:05;10.30;;;6.90;;
69795;SDS011;57073;45.650;9.612;2023-08-24T09:17:06;12.15;;;6.80;;
69795;SDS011;57073;45.650;9.612;2023-08-24T09:22:07;10.87;;;6.80;;
69795;SDS011;57073;45.650;9.612;2023-08-24T09:27:17;11.90;;;7.60;;
69795;SDS011;57073;45.650;9.612;2023-08-24T09:32:27;10.10;;;7.70;;
69795;SDS011;57073;45.650;9.612;2023-08-24T09:37:31;10.68;;;7.93;;
69795;SDS011;57073;45.650;9.612;2023-08-24T09:42:37;17.30;;;8.70;;
69795;SDS011;57073;45.650;9.612;2023-08-24T09:47:38;11.77;;;8.10;;
69795;SDS011;57073;45.650;9.612;2023-08-24T09:52:39;13.23;;;8.53;;
69795;SDS011;57073;45.650;9.612;2023-08-24T09:57:42;11.65;;;8.18;;
69795;SDS011;57073;45.650;9.612;2023-08-24T10:02:48;10.43;;;8.00;;
69795;SDS011;57073;45.650;9.612;2023-08-24T10:07:52;11.33;;;8.20;;
69795;SDS011;57073;45.650;9.612;2023-08-24T10:12:57;13.43;;;9.05;;
69795;SDS011;57073;45.650;9.612;2023-08-24T10:18:01;11.65;;;9.77;;
69795;SDS011;57073;45.650;9.612;2023-08-24T10:23:02;11.63;;;8.57;;
69795;SDS011;57073;45.650;9.612;2023-08-24T10:28:03;12.13;;;8.90;;
69795;SDS011;57073;45.650;9.612;2023-08-24T10:33:05;13.17;;;8.90;;
69795;SDS011;57073;45.650;9.612;2023-08-24T10:38:06;14.40;;;8.55;;
69795;SDS011;57073;45.650;9.612;2023-08-24T10:43:07;14.17;;;8.53;;
69795;SDS011;57073;45.650;9.612;2023-08-24T10:48:07;11.63;;;8.40;;
69795;SDS011;57073;45.650;9.612;2023-08-24T10:53:11;13.60;;;8.35;;
69795;SDS011;57073;45.650;9.612;2023-08-24T10:58:38;12.18;;;8.32;;
69795;SDS011;57073;45.650;9.612;2023-08-24T11:03:39;12.07;;;7.93;;
69795;SDS011;57073;45.650;9.612;2023-08-24T11:08:44;10.93;;;8.05;;
69795;SDS011;57073;45.650;9.612;2023-08-24T11:19:14;16.55;;;8.90;;
69795;SDS011;57073;45.650;9.612;2023-08-24T11:24:15;11.30;;;8.80;;
69795;SDS011;57073;45.650;9.612;2023-08-24T11:29:17;10.20;;;8.43;;
69795;SDS011;57073;45.650;9.612;2023-08-24T11:34:18;12.52;;;9.27;;
69795;SDS011;57073;45.650;9.612;2023-08-24T11:39:19;10.93;;;8.40;;
69795;SDS011;57073;45.650;9.612;2023-08-24T11:44:20;10.87;;;8.13;;
69795;SDS011;57073;45.650;9.612;2023-08-24T11:49:21;12.87;;;9.13;;
69795;SDS011;57073;45.650;9.612;2023-08-24T11:54:21;14.32;;;9.52;;
69795;SDS011;57073;45.650;9.612;2023-08-24T11:59:22;12.30;;;8.50;;
69795;SDS011;57073;45.650;9.612;2023-08-24T12:04:22;12.73;;;8.97;;
69795;SDS011;57073;45.650;9.612;2023-08-24T12:09:23;12.97;;;9.03;;
69795;SDS011;57073;45.650;9.612;2023-08-24T12:14:28;11.07;;;8.57;;
69795;SDS011;57073;45.650;9.612;2023-08-24T12:19:43;13.10;;;8.73;;
69795;SDS011;57073;45.650;9.612;2023-08-24T12:24:45;14.15;;;8.70;;
69795;SDS011;57073;45.650;9.612;2023-08-24T12:29:46;11.30;;;8.60;;
69795;SDS011;57073;45.650;9.612;2023-08-24T12:34:46;13.27;;;8.57;;
69795;SDS011;57073;45.650;9.612;2023-08-24T12:39:47;11.53;;;8.80;;
69795;SDS011;57073;45.650;9.612;2023-08-24T12:44:48;12.48;;;8.77;;
69795;SDS011;57073;45.650;9.612;2023-08-24T12:49:49;13.63;;;8.83;;
69795;SDS011;57073;45.650;9.612;2023-08-24T12:54:50;13.37;;;8.77;;
69795;SDS011;57073;45.650;9.612;2023-08-24T12:59:51;11.73;;;9.10;;
69795;SDS011;57073;45.650;9.612;2023-08-24T13:04:52;12.70;;;9.20;;
69795;SDS011;57073;45.650;9.612;2023-08-24T13:09:53;13.35;;;9.23;;
69795;SDS011;57073;45.650;9.612;2023-08-24T13:14:54;13.80;;;9.47;;
69795;SDS011;57073;45.650;9.612;2023-08-24T13:19:54;13.63;;;9.40;;
69795;SDS011;57073;45.650;9.612;2023-08-24T13:24:55;15.30;;;9.80;;
69795;SDS011;57073;45.650;9.612;2023-08-24T13:29:56;13.40;;;8.87;;
69795;SDS011;57073;45.650;9.612;2023-08-24T13:34:59;11.20;;;8.88;;
69795;SDS011;57073;45.650;9.612;2023-08-24T13:40:00;14.23;;;9.83;;
69795;SDS011;57073;45.650;9.612;2023-08-24T13:45:00;12.90;;;9.37;;
69795;SDS011;57073;45.650;9.612;2023-08-24T13:50:00;16.30;;;9.10;;
69795;SDS011;57073;45.650;9.612;2023-08-24T13:55:02;15.63;;;9.00;;
69795;SDS011;57073;45.650;9.612;2023-08-24T14:00:03;14.20;;;9.27;;
69795;SDS011;57073;45.650;9.612;2023-08-24T14:05:04;12.40;;;8.70;;
69795;SDS011;57073;45.650;9.612;2023-08-24T14:10:09;12.15;;;8.35;;
69795;SDS011;57073;45.650;9.612;2023-08-24T14:15:09;14.70;;;8.97;;
69795;SDS011;57073;45.650;9.612;2023-08-24T14:20:11;13.33;;;8.57;;
69795;SDS011;57073;45.650;9.612;2023-08-24T14:25:12;11.40;;;8.35;;
69795;SDS011;57073;45.650;9.612;2023-08-24T14:30:13;15.27;;;8.40;;
69795;SDS011;57073;45.650;9.612;2023-08-24T14:35:14;14.32;;;8.73;;
69795;SDS011;57073;45.650;9.612;2023-08-24T14:40:14;10.10;;;8.20;;
69795;SDS011;57073;45.650;9.612;2023-08-24T14:45:16;11.30;;;8.30;;
69795;SDS011;57073;45.650;9.612;2023-08-24T14:50:17;9.65;;;7.40;;
69795;SDS011;57073;45.650;9.612;2023-08-24T14:55:17;10.37;;;8.50;;
69795;SDS011;57073;45.650;9.612;2023-08-24T15:00:18;11.23;;;8.07;;
69795;SDS011;57073;45.650;9.612;2023-08-24T15:05:19;13.03;;;8.30;;
69795;SDS011;57073;45.650;9.612;2023-08-24T15:10:19;14.90;;;8.20;;
69795;SDS011;57073;45.650;9.612;2023-08-24T15:15:20;10.63;;;7.73;;
69795;SDS011;57073;45.650;9.612;2023-08-24T15:20:20;13.30;;;8.10;;
69795;SDS011;57073;45.650;9.612;2023-08-24T15:25:21;17.57;;;8.20;;
69795;SDS011;57073;45.650;9.612;2023-08-24T15:30:21;12.37;;;8.70;;
69795;SDS011;57073;45.650;9.612;2023-08-24T15:35:22;12.90;;;8.15;;
69795;SDS011;57073;45.650;9.612;2023-08-24T15:40:22;13.03;;;8.00;;
69795;SDS011;57073;45.650;9.612;2023-08-24T15:45:24;11.73;;;7.97;;
69795;SDS011;57073;45.650;9.612;2023-08-24T15:50:24;14.98;;;7.95;;
69795;SDS011;57073;45.650;9.612;2023-08-24T15:55:27;15.00;;;8.40;;
69795;SDS011;57073;45.650;9.612;2023-08-24T16:00:30;12.95;;;8.05;;
69795;SDS011;57073;45.650;9.612;2023-08-24T16:05:32;12.57;;;8.00;;
69795;SDS011;57073;45.650;9.612;2023-08-24T16:10:33;10.65;;;7.75;;
69795;SDS011;57073;45.650;9.612;2023-08-24T16:15:34;10.60;;;8.60;;
69795;SDS011;57073;45.650;9.612;2023-08-24T16:20:34;10.20;;;8.70;;
69795;SDS011;57073;45.650;9.612;2023-08-24T16:25:34;10.83;;;7.40;;
69795;SDS011;57073;45.650;9.612;2023-08-24T16:30:35;13.03;;;8.50;;
69795;SDS011;57073;45.650;9.612;2023-08-24T16:35:36;12.77;;;8.30;;
69795;SDS011;57073;45.650;9.612;2023-08-24T16:40:36;13.10;;;8.50;;
69795;SDS011;57073;45.650;9.612;2023-08-24T16:45:37;12.77;;;8.03;;
69795;SDS011;57073;45.650;9.612;2023-08-24T16:50:38;13.45;;;8.50;;
69795;SDS011;57073;45.650;9.612;2023-08-24T16:55:38;14.23;;;8.60;;
69795;SDS011;57073;45.650;9.612;2023-08-24T17:00:39;13.77;;;8.63;;
69795;SDS011;57073;45.650;9.612;2023-08-24T17:05:39;12.87;;;8.00;;
69795;SDS011;57073;45.650;9.612;2023-08-24T17:10:41;13.75;;;9.10;;
69795;SDS011;57073;45.650;9.612;2023-08-24T17:15:41;12.85;;;8.20;;
69795;SDS011;57073;45.650;9.612;2023-08-24T17:20:41;15.85;;;8.85;;
69795;SDS011;57073;45.650;9.612;2023-08-24T17:25:42;11.43;;;8.20;;
69795;SDS011;57073;45.650;9.612;2023-08-24T17:30:45;15.67;;;8.50;;
69795;SDS011;57073;45.650;9.612;2023-08-24T17:35:47;12.55;;;8.32;;
69795;SDS011;57073;45.650;9.612;2023-08-24T17:40:48;15.67;;;7.70;;
69795;SDS011;57073;45.650;9.612;2023-08-24T17:45:48;19.60;;;8.47;;
69795;SDS011;57073;45.650;9.612;2023-08-24T17:50:54;13.93;;;8.90;;
69795;SDS011;57073;45.650;9.612;2023-08-24T17:55:56;15.13;;;8.53;;
69795;SDS011;57073;45.650;9.612;2023-08-24T18:00:58;18.08;;;9.20;;
69795;SDS011;57073;45.650;9.612;2023-08-24T18:05:58;15.80;;;9.10;;
69795;SDS011;57073;45.650;9.612;2023-08-24T18:11:01;17.57;;;8.73;;
69795;SDS011;57073;45.650;9.612;2023-08-24T18:16:03;12.30;;;8.40;;
69795;SDS011;57073;45.650;9.612;2023-08-24T18:21:03;18.33;;;9.70;;
69795;SDS011;57073;45.650;9.612;2023-08-24T18:26:04;18.60;;;9.10;;
69795;SDS011;57073;45.650;9.612;2023-08-24T18:31:04;13.37;;;9.10;;
69795;SDS011;57073;45.650;9.612;2023-08-24T18:36:05;14.27;;;9.10;;
69795;SDS011;57073;45.650;9.612;2023-08-24T18:41:05;15.10;;;9.73;;
69795;SDS011;57073;45.650;9.612;2023-08-24T18:46:06;11.73;;;9.00;;
69795;SDS011;57073;45.650;9.612;2023-08-24T18:51:06;16.90;;;9.80;;
69795;SDS011;57073;45.650;9.612;2023-08-24T18:56:06;17.00;;;10.13;;
69795;SDS011;57073;45.650;9.612;2023-08-24T19:01:11;18.70;;;9.70;;
69795;SDS011;57073;45.650;9.612;2023-08-24T19:06:14;16.97;;;9.50;;
69795;SDS011;57073;45.650;9.612;2023-08-24T19:11:14;17.87;;;10.57;;
69795;SDS011;57073;45.650;9.612;2023-08-24T19:16:15;15.17;;;9.87;;
69795;SDS011;57073;45.650;9.612;2023-08-24T19:21:17;19.35;;;10.35;;
69795;SDS011;57073;45.650;9.612;2023-08-24T19:26:18;11.73;;;9.37;;
69795;SDS011;57073;45.650;9.612;2023-08-24T19:31:18;15.10;;;9.60;;
69795;SDS011;57073;45.650;9.612;2023-08-24T19:36:19;13.97;;;9.97;;
69795;SDS011;57073;45.650;9.612;2023-08-24T19:41:19;14.53;;;9.90;;
69795;SDS011;57073;45.650;9.612;2023-08-24T19:46:20;11.80;;;9.10;;
69795;SDS011;57073;45.650;9.612;2023-08-24T19:51:20;13.10;;;9.40;;
69795;SDS011;57073;45.650;9.612;2023-08-24T19:56:21;13.00;;;9.50;;
69795;SDS011;57073;45.650;9.612;2023-08-24T20:01:23;12.20;;;9.10;;
69795;SDS011;57073;45.650;9.612;2023-08-24T20:06:24;12.03;;;9.03;;
69795;SDS011;57073;45.650;9.612;2023-08-24T20:11:26;11.70;;;8.77;;
69795;SDS011;57073;45.650;9.612;2023-08-24T20:16:30;15.13;;;10.23;;
69795;SDS011;57073;45.650;9.612;2023-08-24T20:21:30;12.53;;;9.17;;
69795;SDS011;57073;45.650;9.612;2023-08-24T20:26:32;11.32;;;9.40;;
69795;SDS011;57073;45.650;9.612;2023-08-24T20:31:33;13.90;;;9.67;;
69795;SDS011;57073;45.650;9.612;2023-08-24T20:36:33;14.37;;;9.43;;
69795;SDS011;57073;45.650;9.612;2023-08-24T20:41:33;16.27;;;9.73;;
69795;SDS011;57073;45.650;9.612;2023-08-24T20:46:34;17.33;;;9.10;;
69795;SDS011;57073;45.650;9.612;2023-08-24T20:51:34;13.43;;;9.57;;
69795;SDS011;57073;45.650;9.612;2023-08-24T20:56:34;11.77;;;8.83;;
69795;SDS011;57073;45.650;9.612;2023-08-24T21:01:35;14.47;;;9.40;;
69795;SDS011;57073;45.650;9.612;2023-08-24T21:06:35;11.93;;;8.93;;
69795;SDS011;57073;45.650;9.612;2023-08-24T21:11:36;12.73;;;9.33;;
69795;SDS011;57073;45.650;9.612;2023-08-24T21:16:36;14.33;;;9.07;;
69795;SDS011;57073;45.650;9.612;2023-08-24T21:21:37;12.50;;;9.07;;
69795;SDS011;57073;45.650;9.612;2023-08-24T21:26:37;12.93;;;9.10;;
69795;SDS011;57073;45.650;9.612;2023-08-24T21:31:37;13.50;;;9.70;;
69795;SDS011;57073;45.650;9.612;2023-08-24T21:36:38;17.00;;;8.80;;
69795;SDS011;57073;45.650;9.612;2023-08-24T21:41:38;15.52;;;9.35;;
69795;SDS011;57073;45.650;9.612;2023-08-24T21:46:39;13.83;;;8.80;;
69795;SDS011;57073;45.650;9.612;2023-08-24T21:51:39;13.30;;;9.40;;
69795;SDS011;57073;45.650;9.612;2023-08-24T21:56:39;15.87;;;10.13;;
69795;SDS011;57073;45.650;9.612;2023-08-24T22:01:40;12.87;;;8.77;;
69795;SDS011;57073;45.650;9.612;2023-08-24T22:06:40;13.70;;;9.23;;
69795;SDS011;57073;45.650;9.612;2023-08-24T22:11:40;14.53;;;9.20;;
69795;SDS011;57073;45.650;9.612;2023-08-24T22:16:41;13.23;;;8.93;;
69795;SDS011;57073;45.650;9.612;2023-08-24T22:21:41;11.53;;;8.70;;
69795;SDS011;57073;45.650;9.612;2023-08-24T22:26:41;12.17;;;8.80;;
69795;SDS011;57073;45.650;9.612;2023-08-24T22:31:42;12.67;;;8.90;;
69795;SDS011;57073;45.650;9.612;2023-08-24T22:36:42;12.77;;;8.93;;
69795;SDS011;57073;45.650;9.612;2023-08-24T22:41:43;11.30;;;8.83;;
69795;SDS011;57073;45.650;9.612;2023-08-24T22:46:43;16.90;;;8.80;;
69795;SDS011;57073;45.650;9.612;2023-08-24T22:51:44;12.43;;;8.90;;
69795;SDS011;57073;45.650;9.612;2023-08-24T22:56:44;12.93;;;8.43;;
69795;SDS011;57073;45.650;9.612;2023-08-24T23:01:45;19.97;;;9.37;;
69795;SDS011;57073;45.650;9.612;2023-08-24T23:06:46;16.67;;;9.48;;
69795;SDS011;57073;45.650;9.612;2023-08-24T23:12:03;13.38;;;8.70;;
69795;SDS011;57073;45.650;9.612;2023-08-24T23:17:04;14.53;;;9.37;;
69795;SDS011;57073;45.650;9.612;2023-08-24T23:22:04;14.13;;;9.10;;
69795;SDS011;57073;45.650;9.612;2023-08-24T23:27:05;12.70;;;8.90;;
69795;SDS011;57073;45.650;9.612;2023-08-24T23:32:05;11.03;;;8.27;;
69795;SDS011;57073;45.650;9.612;2023-08-24T23:37:06;13.67;;;8.90;;
69795;SDS011;57073;45.650;9.612;2023-08-24T23:42:06;13.13;;;8.77;;
69795;SDS011;57073;45.650;9.612;2023-08-24T23:47:07;13.20;;;9.20;;
69795;SDS011;57073;45.650;9.612;2023-08-24T23:52:07;15.77;;;9.37;;
69795;SDS011;57073;45.650;9.612;2023-08-24T23:57:08;11.83;;;8.77;;
